sensor_id;sensor_type;location;lat;lon;timestamp;P1;durP1;ratioP1;P2;durP2;ratioP2
74749;SDS011;63269;53.330;-6.288;2023-05-16T00:01:10;4.88;;;1.23;;
74749;SDS011;63269;53.330;-6.288;2023-05-16T00:03:36;2.97;;;1.20;;
74749;SDS011;63269;53.330;-6.288;2023-05-16T00:06:02;3.63;;;1.48;;
74749;SDS011;63269;53.330;-6.288;2023-05-16T00:08:29;5.35;;;1.50;;
74749;SDS011;63269;53.330;-6.288;2023-05-16T00:10:54;4.45;;;1.15;;
74749;SDS011;63269;53.330;-6.288;2023-05-16T00:13:20;2.13;;;1.08;;
74749;SDS011;63269;53.330;-6.288;2023-05-16T00:15:49;3.70;;;1.00;;
74749;SDS011;63269;53.330;-6.288;2023-05-16T00:18:16;2.53;;;1.33;;
74749;SDS011;63269;53.330;-6.288;2023-05-16T00:20:42;2.45;;;1.02;;
74749;SDS011;63269;53.330;-6.288;2023-05-16T00:23:07;2.60;;;1.05;;
74749;SDS011;63269;53.330;-6.288;2023-05-16T00:25:33;2.42;;;1.38;;
74749;SDS011;63269;53.330;-6.288;2023-05-16T00:27:58;2.78;;;1.25;;
74749;SDS011;63269;53.330;-6.288;2023-05-16T00:30:23;3.65;;;1.52;;
74749;SDS011;63269;53.330;-6.288;2023-05-16T00:32:49;3.13;;;1.85;;
74749;SDS011;63269;53.330;-6.288;2023-05-16T00:35:14;6.70;;;1.40;;
74749;SDS011;63269;53.330;-6.288;2023-05-16T00:37:40;3.38;;;1.13;;
74749;SDS011;63269;53.330;-6.288;2023-05-16T00:40:05;6.07;;;1.95;;
74749;SDS011;63269;53.330;-6.288;2023-05-16T00:42:32;3.92;;;1.30;;
74749;SDS011;63269;53.330;-6.288;2023-05-16T00:44:57;4.25;;;1.95;;
74749;SDS011;63269;53.330;-6.288;2023-05-16T00:47:23;4.93;;;1.27;;
74749;SDS011;63269;53.330;-6.288;2023-05-16T00:49:48;3.92;;;1.52;;
74749;SDS011;63269;53.330;-6.288;2023-05-16T00:52:14;4.18;;;1.38;;
74749;SDS011;63269;53.330;-6.288;2023-05-16T00:54:39;3.83;;;1.30;;
74749;SDS011;63269;53.330;-6.288;2023-05-16T00:57:05;4.75;;;1.42;;
74749;SDS011;63269;53.330;-6.288;2023-05-16T00:59:31;3.83;;;1.38;;
74749;SDS011;63269;53.330;-6.288;2023-05-16T01:01:57;3.10;;;1.08;;
74749;SDS011;63269;53.330;-6.288;2023-05-16T01:04:23;2.83;;;1.30;;
74749;SDS011;63269;53.330;-6.288;2023-05-16T01:06:49;3.33;;;1.05;;
74749;SDS011;63269;53.330;-6.288;2023-05-16T01:09:14;3.00;;;1.10;;
74749;SDS011;63269;53.330;-6.288;2023-05-16T01:11:50;2.63;;;1.00;;
74749;SDS011;63269;53.330;-6.288;2023-05-16T01:16:58;3.25;;;1.40;;
74749;SDS011;63269;53.330;-6.288;2023-05-16T01:27:51;3.78;;;1.38;;
74749;SDS011;63269;53.330;-6.288;2023-05-16T01:30:17;3.97;;;1.40;;
74749;SDS011;63269;53.330;-6.288;2023-05-16T01:32:43;4.38;;;1.10;;
74749;SDS011;63269;53.330;-6.288;2023-05-16T01:35:10;2.72;;;1.10;;
74749;SDS011;63269;53.330;-6.288;2023-05-16T01:37:44;3.92;;;1.27;;
74749;SDS011;63269;53.330;-6.288;2023-05-16T01:40:26;3.10;;;1.13;;
74749;SDS011;63269;53.330;-6.288;2023-05-16T01:43:01;2.90;;;1.10;;
74749;SDS011;63269;53.330;-6.288;2023-05-16T01:45:33;3.60;;;1.00;;
74749;SDS011;63269;53.330;-6.288;2023-05-16T01:48:05;2.67;;;1.10;;
74749;SDS011;63269;53.330;-6.288;2023-05-16T01:50:35;3.97;;;0.98;;
74749;SDS011;63269;53.330;-6.288;2023-05-16T01:53:08;1.95;;;1.10;;
74749;SDS011;63269;53.330;-6.288;2023-05-16T01:55:40;6.10;;;1.48;;
74749;SDS011;63269;53.330;-6.288;2023-05-16T01:58:08;3.40;;;1.42;;
74749;SDS011;63269;53.330;-6.288;2023-05-16T02:00:36;2.38;;;1.25;;
74749;SDS011;63269;53.330;-6.288;2023-05-16T02:03:01;4.38;;;1.40;;
74749;SDS011;63269;53.330;-6.288;2023-05-16T02:05:27;3.38;;;1.45;;
74749;SDS011;63269;53.330;-6.288;2023-05-16T02:07:52;3.88;;;1.58;;
74749;SDS011;63269;53.330;-6.288;2023-05-16T02:10:18;3.30;;;1.13;;
74749;SDS011;63269;53.330;-6.288;2023-05-16T02:12:44;3.28;;;1.05;;
74749;SDS011;63269;53.330;-6.288;2023-05-16T02:15:10;3.78;;;1.25;;
74749;SDS011;63269;53.330;-6.288;2023-05-16T02:17:35;2.33;;;1.23;;
74749;SDS011;63269;53.330;-6.288;2023-05-16T02:20:01;3.38;;;1.13;;
74749;SDS011;63269;53.330;-6.288;2023-05-16T02:22:31;5.03;;;2.00;;
74749;SDS011;63269;53.330;-6.288;2023-05-16T02:24:57;3.90;;;1.30;;
74749;SDS011;63269;53.330;-6.288;2023-05-16T02:27:24;2.90;;;1.05;;
74749;SDS011;63269;53.330;-6.288;2023-05-16T02:29:49;2.70;;;1.33;;
74749;SDS011;63269;53.330;-6.288;2023-05-16T02:32:15;4.22;;;1.00;;
74749;SDS011;63269;53.330;-6.288;2023-05-16T02:34:40;2.65;;;1.48;;
74749;SDS011;63269;53.330;-6.288;2023-05-16T02:37:06;3.50;;;1.20;;
74749;SDS011;63269;53.330;-6.288;2023-05-16T02:39:32;2.53;;;1.00;;
74749;SDS011;63269;53.330;-6.288;2023-05-16T02:41:57;4.43;;;1.40;;
74749;SDS011;63269;53.330;-6.288;2023-05-16T02:44:23;2.42;;;0.98;;
74749;SDS011;63269;53.330;-6.288;2023-05-16T02:46:48;3.40;;;1.05;;
74749;SDS011;63269;53.330;-6.288;2023-05-16T02:49:14;3.00;;;1.50;;
74749;SDS011;63269;53.330;-6.288;2023-05-16T02:51:39;3.92;;;1.13;;
74749;SDS011;63269;53.330;-6.288;2023-05-16T02:54:04;3.20;;;1.02;;
74749;SDS011;63269;53.330;-6.288;2023-05-16T02:56:33;2.47;;;1.10;;
74749;SDS011;63269;53.330;-6.288;2023-05-16T02:58:58;2.35;;;1.10;;
74749;SDS011;63269;53.330;-6.288;2023-05-16T03:01:24;2.42;;;0.90;;
74749;SDS011;63269;53.330;-6.288;2023-05-16T03:03:49;2.83;;;0.98;;
74749;SDS011;63269;53.330;-6.288;2023-05-16T03:06:15;1.92;;;1.10;;
74749;SDS011;63269;53.330;-6.288;2023-05-16T03:08:40;3.60;;;1.30;;
74749;SDS011;63269;53.330;-6.288;2023-05-16T03:11:06;3.08;;;1.30;;
74749;SDS011;63269;53.330;-6.288;2023-05-16T03:13:31;3.53;;;1.25;;
74749;SDS011;63269;53.330;-6.288;2023-05-16T03:15:57;2.20;;;0.85;;
74749;SDS011;63269;53.330;-6.288;2023-05-16T03:18:22;2.60;;;0.90;;
74749;SDS011;63269;53.330;-6.288;2023-05-16T03:20:48;2.15;;;0.93;;
74749;SDS011;63269;53.330;-6.288;2023-05-16T03:23:13;2.40;;;0.77;;
74749;SDS011;63269;53.330;-6.288;2023-05-16T03:25:39;2.72;;;1.10;;
74749;SDS011;63269;53.330;-6.288;2023-05-16T03:28:04;3.22;;;1.20;;
74749;SDS011;63269;53.330;-6.288;2023-05-16T03:30:32;5.47;;;1.90;;
74749;SDS011;63269;53.330;-6.288;2023-05-16T03:32:58;1.48;;;0.80;;
74749;SDS011;63269;53.330;-6.288;2023-05-16T03:35:23;4.18;;;1.27;;
74749;SDS011;63269;53.330;-6.288;2023-05-16T03:37:49;2.25;;;0.90;;
74749;SDS011;63269;53.330;-6.288;2023-05-16T03:40:14;2.10;;;1.02;;
74749;SDS011;63269;53.330;-6.288;2023-05-16T03:42:40;4.22;;;1.27;;
74749;SDS011;63269;53.330;-6.288;2023-05-16T03:45:05;5.75;;;0.98;;
74749;SDS011;63269;53.330;-6.288;2023-05-16T03:47:33;2.63;;;1.13;;
74749;SDS011;63269;53.330;-6.288;2023-05-16T03:49:58;3.33;;;1.20;;
74749;SDS011;63269;53.330;-6.288;2023-05-16T03:52:24;2.25;;;1.00;;
74749;SDS011;63269;53.330;-6.288;2023-05-16T03:54:50;1.65;;;1.00;;
74749;SDS011;63269;53.330;-6.288;2023-05-16T03:57:15;2.60;;;0.90;;
74749;SDS011;63269;53.330;-6.288;2023-05-16T03:59:41;3.53;;;1.60;;
74749;SDS011;63269;53.330;-6.288;2023-05-16T04:02:07;4.25;;;1.17;;
74749;SDS011;63269;53.330;-6.288;2023-05-16T04:04:32;3.72;;;1.00;;
74749;SDS011;63269;53.330;-6.288;2023-05-16T04:06:58;2.50;;;1.00;;
74749;SDS011;63269;53.330;-6.288;2023-05-16T04:09:23;3.05;;;1.10;;
74749;SDS011;63269;53.330;-6.288;2023-05-16T04:11:48;3.60;;;1.20;;
74749;SDS011;63269;53.330;-6.288;2023-05-16T04:14:14;1.90;;;1.00;;
74749;SDS011;63269;53.330;-6.288;2023-05-16T04:16:40;3.13;;;1.00;;
74749;SDS011;63269;53.330;-6.288;2023-05-16T04:19:06;2.92;;;1.35;;
74749;SDS011;63269;53.330;-6.288;2023-05-16T04:21:31;2.63;;;1.27;;
74749;SDS011;63269;53.330;-6.288;2023-05-16T04:23:57;3.05;;;1.15;;
74749;SDS011;63269;53.330;-6.288;2023-05-16T04:26:23;3.00;;;1.10;;
74749;SDS011;63269;53.330;-6.288;2023-05-16T04:28:48;3.05;;;0.90;;
74749;SDS011;63269;53.330;-6.288;2023-05-16T04:31:14;3.22;;;1.45;;
74749;SDS011;63269;53.330;-6.288;2023-05-16T04:33:40;3.13;;;1.45;;
74749;SDS011;63269;53.330;-6.288;2023-05-16T04:36:06;3.88;;;1.50;;
74749;SDS011;63269;53.330;-6.288;2023-05-16T04:38:32;4.35;;;1.13;;
74749;SDS011;63269;53.330;-6.288;2023-05-16T04:40:57;2.72;;;1.08;;
74749;SDS011;63269;53.330;-6.288;2023-05-16T04:43:23;4.60;;;1.23;;
74749;SDS011;63269;53.330;-6.288;2023-05-16T04:45:48;4.10;;;1.13;;
74749;SDS011;63269;53.330;-6.288;2023-05-16T04:48:14;2.90;;;0.95;;
74749;SDS011;63269;53.330;-6.288;2023-05-16T04:50:40;1.67;;;0.73;;
74749;SDS011;63269;53.330;-6.288;2023-05-16T04:53:06;3.80;;;0.90;;
74749;SDS011;63269;53.330;-6.288;2023-05-16T04:55:31;2.58;;;0.90;;
74749;SDS011;63269;53.330;-6.288;2023-05-16T04:57:57;4.47;;;1.08;;
74749;SDS011;63269;53.330;-6.288;2023-05-16T05:00:22;2.80;;;0.93;;
74749;SDS011;63269;53.330;-6.288;2023-05-16T05:02:48;3.95;;;1.02;;
74749;SDS011;63269;53.330;-6.288;2023-05-16T05:05:13;3.50;;;1.08;;
74749;SDS011;63269;53.330;-6.288;2023-05-16T05:07:39;2.33;;;0.95;;
74749;SDS011;63269;53.330;-6.288;2023-05-16T05:10:05;1.60;;;0.80;;
74749;SDS011;63269;53.330;-6.288;2023-05-16T05:12:31;2.15;;;1.40;;
74749;SDS011;63269;53.330;-6.288;2023-05-16T05:14:57;4.32;;;1.52;;
74749;SDS011;63269;53.330;-6.288;2023-05-16T05:17:23;3.63;;;1.33;;
74749;SDS011;63269;53.330;-6.288;2023-05-16T05:19:48;3.80;;;1.13;;
74749;SDS011;63269;53.330;-6.288;2023-05-16T05:22:14;4.13;;;1.48;;
74749;SDS011;63269;53.330;-6.288;2023-05-16T05:24:39;3.22;;;1.10;;
74749;SDS011;63269;53.330;-6.288;2023-05-16T05:27:05;4.60;;;1.30;;
74749;SDS011;63269;53.330;-6.288;2023-05-16T05:29:30;4.70;;;1.20;;
74749;SDS011;63269;53.330;-6.288;2023-05-16T05:31:56;2.35;;;1.00;;
74749;SDS011;63269;53.330;-6.288;2023-05-16T05:34:21;2.88;;;1.38;;
74749;SDS011;63269;53.330;-6.288;2023-05-16T05:36:46;3.40;;;1.33;;
74749;SDS011;63269;53.330;-6.288;2023-05-16T05:39:12;3.75;;;1.60;;
74749;SDS011;63269;53.330;-6.288;2023-05-16T05:41:37;2.55;;;1.40;;
74749;SDS011;63269;53.330;-6.288;2023-05-16T05:44:04;2.60;;;1.17;;
74749;SDS011;63269;53.330;-6.288;2023-05-16T05:46:29;3.53;;;1.30;;
74749;SDS011;63269;53.330;-6.288;2023-05-16T05:48:55;3.38;;;1.33;;
74749;SDS011;63269;53.330;-6.288;2023-05-16T05:51:21;3.50;;;1.30;;
74749;SDS011;63269;53.330;-6.288;2023-05-16T05:53:46;3.05;;;1.42;;
74749;SDS011;63269;53.330;-6.288;2023-05-16T05:56:12;4.82;;;1.27;;
74749;SDS011;63269;53.330;-6.288;2023-05-16T05:58:37;4.28;;;1.13;;
74749;SDS011;63269;53.330;-6.288;2023-05-16T06:01:03;2.63;;;1.13;;
74749;SDS011;63269;53.330;-6.288;2023-05-16T06:03:28;6.15;;;1.58;;
74749;SDS011;63269;53.330;-6.288;2023-05-16T06:05:54;2.17;;;0.95;;
74749;SDS011;63269;53.330;-6.288;2023-05-16T06:08:19;3.22;;;1.50;;
74749;SDS011;63269;53.330;-6.288;2023-05-16T06:10:45;2.78;;;1.20;;
74749;SDS011;63269;53.330;-6.288;2023-05-16T06:13:11;3.95;;;1.88;;
74749;SDS011;63269;53.330;-6.288;2023-05-16T06:15:37;3.35;;;1.10;;
74749;SDS011;63269;53.330;-6.288;2023-05-16T06:18:02;5.57;;;1.10;;
74749;SDS011;63269;53.330;-6.288;2023-05-16T06:20:28;3.45;;;1.60;;
74749;SDS011;63269;53.330;-6.288;2023-05-16T06:22:53;4.22;;;1.25;;
74749;SDS011;63269;53.330;-6.288;2023-05-16T06:25:18;3.03;;;1.70;;
74749;SDS011;63269;53.330;-6.288;2023-05-16T06:27:44;3.75;;;1.38;;
74749;SDS011;63269;53.330;-6.288;2023-05-16T06:30:09;3.58;;;1.58;;
74749;SDS011;63269;53.330;-6.288;2023-05-16T06:32:35;4.32;;;1.40;;
74749;SDS011;63269;53.330;-6.288;2023-05-16T06:35:01;3.72;;;1.20;;
74749;SDS011;63269;53.330;-6.288;2023-05-16T06:37:26;4.55;;;1.40;;
74749;SDS011;63269;53.330;-6.288;2023-05-16T06:39:52;4.93;;;1.88;;
74749;SDS011;63269;53.330;-6.288;2023-05-16T06:42:17;3.78;;;1.20;;
74749;SDS011;63269;53.330;-6.288;2023-05-16T06:44:44;3.88;;;1.55;;
74749;SDS011;63269;53.330;-6.288;2023-05-16T06:47:10;5.78;;;1.50;;
74749;SDS011;63269;53.330;-6.288;2023-05-16T06:49:36;2.88;;;1.10;;
74749;SDS011;63269;53.330;-6.288;2023-05-16T06:52:01;5.03;;;1.60;;
74749;SDS011;63269;53.330;-6.288;2023-05-16T06:54:27;4.22;;;1.50;;
74749;SDS011;63269;53.330;-6.288;2023-05-16T06:56:52;3.22;;;1.35;;
74749;SDS011;63269;53.330;-6.288;2023-05-16T06:59:18;6.45;;;1.92;;
74749;SDS011;63269;53.330;-6.288;2023-05-16T07:01:43;3.50;;;1.27;;
74749;SDS011;63269;53.330;-6.288;2023-05-16T07:04:08;3.15;;;1.52;;
74749;SDS011;63269;53.330;-6.288;2023-05-16T07:06:34;3.22;;;1.70;;
74749;SDS011;63269;53.330;-6.288;2023-05-16T07:09:00;3.33;;;1.42;;
74749;SDS011;63269;53.330;-6.288;2023-05-16T07:11:26;5.13;;;1.90;;
74749;SDS011;63269;53.330;-6.288;2023-05-16T07:13:51;2.63;;;1.17;;
74749;SDS011;63269;53.330;-6.288;2023-05-16T07:16:17;5.25;;;1.25;;
74749;SDS011;63269;53.330;-6.288;2023-05-16T07:18:42;4.68;;;1.70;;
74749;SDS011;63269;53.330;-6.288;2023-05-16T07:21:08;2.97;;;1.30;;
74749;SDS011;63269;53.330;-6.288;2023-05-16T07:23:33;2.92;;;1.33;;
74749;SDS011;63269;53.330;-6.288;2023-05-16T07:25:59;5.18;;;1.40;;
74749;SDS011;63269;53.330;-6.288;2023-05-16T07:28:24;2.80;;;1.40;;
74749;SDS011;63269;53.330;-6.288;2023-05-16T07:30:50;3.17;;;1.35;;
74749;SDS011;63269;53.330;-6.288;2023-05-16T07:33:15;3.33;;;1.48;;
74749;SDS011;63269;53.330;-6.288;2023-05-16T07:35:41;2.45;;;0.95;;
74749;SDS011;63269;53.330;-6.288;2023-05-16T07:38:06;4.18;;;1.25;;
74749;SDS011;63269;53.330;-6.288;2023-05-16T07:40:32;4.78;;;1.70;;
74749;SDS011;63269;53.330;-6.288;2023-05-16T07:42:57;4.32;;;1.50;;
74749;SDS011;63269;53.330;-6.288;2023-05-16T07:45:23;3.30;;;1.45;;
74749;SDS011;63269;53.330;-6.288;2023-05-16T07:47:49;5.38;;;1.60;;
74749;SDS011;63269;53.330;-6.288;2023-05-16T07:50:14;3.95;;;1.35;;
74749;SDS011;63269;53.330;-6.288;2023-05-16T07:52:40;3.95;;;1.60;;
74749;SDS011;63269;53.330;-6.288;2023-05-16T07:55:05;5.97;;;1.88;;
74749;SDS011;63269;53.330;-6.288;2023-05-16T07:57:32;3.55;;;2.03;;
74749;SDS011;63269;53.330;-6.288;2023-05-16T07:59:57;4.32;;;1.50;;
74749;SDS011;63269;53.330;-6.288;2023-05-16T08:02:22;4.28;;;1.58;;
74749;SDS011;63269;53.330;-6.288;2023-05-16T08:04:50;4.13;;;1.90;;
74749;SDS011;63269;53.330;-6.288;2023-05-16T08:07:15;7.95;;;1.95;;
74749;SDS011;63269;53.330;-6.288;2023-05-16T08:09:41;3.92;;;1.55;;
74749;SDS011;63269;53.330;-6.288;2023-05-16T08:12:06;5.20;;;2.17;;
74749;SDS011;63269;53.330;-6.288;2023-05-16T08:14:32;6.18;;;2.05;;
74749;SDS011;63269;53.330;-6.288;2023-05-16T08:16:58;5.25;;;1.63;;
74749;SDS011;63269;53.330;-6.288;2023-05-16T08:19:24;3.65;;;1.77;;
74749;SDS011;63269;53.330;-6.288;2023-05-16T08:21:50;5.25;;;1.90;;
74749;SDS011;63269;53.330;-6.288;2023-05-16T08:24:15;5.53;;;2.33;;
74749;SDS011;63269;53.330;-6.288;2023-05-16T08:26:41;7.45;;;2.03;;
74749;SDS011;63269;53.330;-6.288;2023-05-16T08:29:06;7.28;;;2.10;;
74749;SDS011;63269;53.330;-6.288;2023-05-16T08:31:31;6.50;;;2.45;;
74749;SDS011;63269;53.330;-6.288;2023-05-16T08:33:57;5.40;;;2.08;;
74749;SDS011;63269;53.330;-6.288;2023-05-16T08:36:22;6.45;;;2.00;;
74749;SDS011;63269;53.330;-6.288;2023-05-16T08:38:48;4.50;;;1.90;;
74749;SDS011;63269;53.330;-6.288;2023-05-16T08:41:14;6.15;;;2.42;;
74749;SDS011;63269;53.330;-6.288;2023-05-16T08:43:40;6.28;;;2.28;;
74749;SDS011;63269;53.330;-6.288;2023-05-16T08:46:06;6.32;;;2.58;;
74749;SDS011;63269;53.330;-6.288;2023-05-16T08:48:33;5.88;;;2.05;;
74749;SDS011;63269;53.330;-6.288;2023-05-16T08:51:01;5.57;;;2.42;;
74749;SDS011;63269;53.330;-6.288;2023-05-16T08:53:30;5.57;;;2.55;;
74749;SDS011;63269;53.330;-6.288;2023-05-16T08:56:00;14.02;;;3.00;;
74749;SDS011;63269;53.330;-6.288;2023-05-16T08:58:27;10.00;;;3.63;;
74749;SDS011;63269;53.330;-6.288;2023-05-16T09:00:54;7.38;;;2.65;;
74749;SDS011;63269;53.330;-6.288;2023-05-16T09:03:20;9.60;;;2.90;;
74749;SDS011;63269;53.330;-6.288;2023-05-16T09:05:48;7.85;;;2.90;;
74749;SDS011;63269;53.330;-6.288;2023-05-16T09:08:14;9.18;;;3.30;;
74749;SDS011;63269;53.330;-6.288;2023-05-16T09:10:40;9.15;;;3.13;;
74749;SDS011;63269;53.330;-6.288;2023-05-16T09:13:05;9.75;;;3.08;;
74749;SDS011;63269;53.330;-6.288;2023-05-16T09:15:31;11.23;;;3.25;;
74749;SDS011;63269;53.330;-6.288;2023-05-16T09:18:01;8.30;;;2.47;;
74749;SDS011;63269;53.330;-6.288;2023-05-16T09:20:27;7.93;;;2.75;;
74749;SDS011;63269;53.330;-6.288;2023-05-16T09:22:56;10.85;;;3.55;;
74749;SDS011;63269;53.330;-6.288;2023-05-16T09:25:26;6.20;;;3.15;;
74749;SDS011;63269;53.330;-6.288;2023-05-16T09:27:53;13.45;;;2.72;;
74749;SDS011;63269;53.330;-6.288;2023-05-16T09:30:20;11.00;;;2.63;;
74749;SDS011;63269;53.330;-6.288;2023-05-16T09:32:52;9.13;;;2.85;;
74749;SDS011;63269;53.330;-6.288;2023-05-16T09:35:18;50.10;;;33.83;;
74749;SDS011;63269;53.330;-6.288;2023-05-16T09:37:45;37.45;;;23.25;;
74749;SDS011;63269;53.330;-6.288;2023-05-16T09:40:11;24.80;;;8.85;;
74749;SDS011;63269;53.330;-6.288;2023-05-16T09:42:37;20.20;;;7.20;;
74749;SDS011;63269;53.330;-6.288;2023-05-16T09:45:03;20.40;;;6.00;;
74749;SDS011;63269;53.330;-6.288;2023-05-16T09:47:29;28.70;;;6.82;;
74749;SDS011;63269;53.330;-6.288;2023-05-16T09:49:54;20.27;;;5.72;;
74749;SDS011;63269;53.330;-6.288;2023-05-16T09:52:20;23.02;;;5.57;;
74749;SDS011;63269;53.330;-6.288;2023-05-16T09:54:46;16.33;;;5.28;;
74749;SDS011;63269;53.330;-6.288;2023-05-16T09:57:18;20.58;;;4.82;;
74749;SDS011;63269;53.330;-6.288;2023-05-16T09:59:44;14.80;;;5.20;;
74749;SDS011;63269;53.330;-6.288;2023-05-16T10:02:10;20.55;;;5.75;;
74749;SDS011;63269;53.330;-6.288;2023-05-16T10:04:37;22.52;;;4.70;;
74749;SDS011;63269;53.330;-6.288;2023-05-16T10:07:03;14.93;;;4.32;;
74749;SDS011;63269;53.330;-6.288;2023-05-16T10:09:32;15.68;;;5.35;;
74749;SDS011;63269;53.330;-6.288;2023-05-16T10:12:01;11.75;;;3.92;;
74749;SDS011;63269;53.330;-6.288;2023-05-16T10:14:29;16.38;;;4.43;;
74749;SDS011;63269;53.330;-6.288;2023-05-16T10:16:59;13.70;;;5.35;;
74749;SDS011;63269;53.330;-6.288;2023-05-16T10:19:27;15.95;;;4.30;;
74749;SDS011;63269;53.330;-6.288;2023-05-16T10:21:57;13.15;;;4.55;;
74749;SDS011;63269;53.330;-6.288;2023-05-16T10:27:12;13.43;;;4.28;;
74749;SDS011;63269;53.330;-6.288;2023-05-16T10:29:39;10.02;;;4.30;;
74749;SDS011;63269;53.330;-6.288;2023-05-16T10:32:06;12.75;;;4.20;;
74749;SDS011;63269;53.330;-6.288;2023-05-16T10:34:33;9.27;;;3.85;;
74749;SDS011;63269;53.330;-6.288;2023-05-16T10:36:59;16.60;;;5.60;;
74749;SDS011;63269;53.330;-6.288;2023-05-16T10:39:25;11.40;;;4.07;;
74749;SDS011;63269;53.330;-6.288;2023-05-16T10:41:52;12.30;;;3.92;;
74749;SDS011;63269;53.330;-6.288;2023-05-16T10:44:17;9.80;;;3.42;;
74749;SDS011;63269;53.330;-6.288;2023-05-16T10:46:43;15.65;;;4.45;;
74749;SDS011;63269;53.330;-6.288;2023-05-16T10:49:21;11.15;;;4.28;;
74749;SDS011;63269;53.330;-6.288;2023-05-16T10:54:56;13.20;;;5.18;;
74749;SDS011;63269;53.330;-6.288;2023-05-16T10:57:27;12.88;;;3.72;;
74749;SDS011;63269;53.330;-6.288;2023-05-16T10:59:53;10.00;;;3.60;;
74749;SDS011;63269;53.330;-6.288;2023-05-16T11:04:57;12.70;;;4.10;;
74749;SDS011;63269;53.330;-6.288;2023-05-16T11:10:01;10.23;;;3.65;;
74749;SDS011;63269;53.330;-6.288;2023-05-16T11:15:17;12.02;;;3.92;;
74749;SDS011;63269;53.330;-6.288;2023-05-16T11:17:43;13.60;;;4.18;;
74749;SDS011;63269;53.330;-6.288;2023-05-16T11:20:23;12.10;;;4.88;;
74749;SDS011;63269;53.330;-6.288;2023-05-16T11:22:50;7.95;;;3.72;;
74749;SDS011;63269;53.330;-6.288;2023-05-16T11:25:16;13.20;;;4.50;;
74749;SDS011;63269;53.330;-6.288;2023-05-16T11:27:58;7.43;;;3.60;;
74749;SDS011;63269;53.330;-6.288;2023-05-16T11:30:25;10.90;;;4.05;;
74749;SDS011;63269;53.330;-6.288;2023-05-16T11:32:50;8.80;;;3.63;;
74749;SDS011;63269;53.330;-6.288;2023-05-16T11:35:16;18.25;;;5.13;;
74749;SDS011;63269;53.330;-6.288;2023-05-16T11:37:42;10.82;;;3.92;;
74749;SDS011;63269;53.330;-6.288;2023-05-16T11:40:10;9.23;;;4.10;;
74749;SDS011;63269;53.330;-6.288;2023-05-16T11:45:16;9.60;;;4.60;;
74749;SDS011;63269;53.330;-6.288;2023-05-16T11:47:44;8.32;;;3.17;;
74749;SDS011;63269;53.330;-6.288;2023-05-16T11:52:37;7.47;;;3.47;;
74749;SDS011;63269;53.330;-6.288;2023-05-16T11:55:06;9.93;;;3.90;;
74749;SDS011;63269;53.330;-6.288;2023-05-16T11:57:34;9.15;;;3.42;;
74749;SDS011;63269;53.330;-6.288;2023-05-16T12:00:43;10.90;;;3.53;;
74749;SDS011;63269;53.330;-6.288;2023-05-16T12:02:51;6.88;;;3.50;;
74749;SDS011;63269;53.330;-6.288;2023-05-16T12:05:17;9.57;;;3.55;;
74749;SDS011;63269;53.330;-6.288;2023-05-16T12:07:52;6.10;;;3.10;;
74749;SDS011;63269;53.330;-6.288;2023-05-16T12:10:20;9.80;;;4.18;;
74749;SDS011;63269;53.330;-6.288;2023-05-16T12:12:47;7.90;;;3.70;;
74749;SDS011;63269;53.330;-6.288;2023-05-16T12:15:16;11.32;;;4.40;;
74749;SDS011;63269;53.330;-6.288;2023-05-16T12:17:42;8.50;;;3.75;;
74749;SDS011;63269;53.330;-6.288;2023-05-16T12:20:08;7.35;;;3.38;;
74749;SDS011;63269;53.330;-6.288;2023-05-16T12:22:40;9.52;;;3.58;;
74749;SDS011;63269;53.330;-6.288;2023-05-16T12:25:24;9.75;;;3.63;;
74749;SDS011;63269;53.330;-6.288;2023-05-16T12:27:51;7.97;;;3.40;;
74749;SDS011;63269;53.330;-6.288;2023-05-16T12:30:17;9.43;;;4.07;;
74749;SDS011;63269;53.330;-6.288;2023-05-16T12:32:43;5.93;;;3.25;;
74749;SDS011;63269;53.330;-6.288;2023-05-16T12:35:09;7.28;;;3.80;;
74749;SDS011;63269;53.330;-6.288;2023-05-16T12:37:36;7.93;;;4.07;;
74749;SDS011;63269;53.330;-6.288;2023-05-16T12:40:02;9.77;;;4.28;;
74749;SDS011;63269;53.330;-6.288;2023-05-16T12:42:31;11.50;;;3.63;;
74749;SDS011;63269;53.330;-6.288;2023-05-16T12:44:56;13.20;;;4.05;;
74749;SDS011;63269;53.330;-6.288;2023-05-16T12:47:22;9.98;;;3.38;;
74749;SDS011;63269;53.330;-6.288;2023-05-16T12:49:47;8.88;;;3.83;;
74749;SDS011;63269;53.330;-6.288;2023-05-16T12:52:16;10.88;;;3.83;;
74749;SDS011;63269;53.330;-6.288;2023-05-16T12:54:44;10.77;;;4.15;;
74749;SDS011;63269;53.330;-6.288;2023-05-16T12:57:10;9.45;;;4.15;;
74749;SDS011;63269;53.330;-6.288;2023-05-16T12:59:35;5.75;;;3.08;;
74749;SDS011;63269;53.330;-6.288;2023-05-16T13:02:01;6.53;;;3.70;;
74749;SDS011;63269;53.330;-6.288;2023-05-16T13:04:27;7.15;;;3.50;;
74749;SDS011;63269;53.330;-6.288;2023-05-16T13:06:53;8.85;;;3.15;;
74749;SDS011;63269;53.330;-6.288;2023-05-16T13:09:18;8.63;;;4.00;;
74749;SDS011;63269;53.330;-6.288;2023-05-16T13:11:44;8.43;;;3.78;;
74749;SDS011;63269;53.330;-6.288;2023-05-16T13:14:09;9.85;;;3.50;;
74749;SDS011;63269;53.330;-6.288;2023-05-16T13:16:34;13.00;;;4.18;;
74749;SDS011;63269;53.330;-6.288;2023-05-16T13:19:00;8.88;;;3.63;;
74749;SDS011;63269;53.330;-6.288;2023-05-16T13:21:26;13.30;;;3.83;;
74749;SDS011;63269;53.330;-6.288;2023-05-16T13:23:54;7.20;;;3.20;;
74749;SDS011;63269;53.330;-6.288;2023-05-16T13:26:19;6.93;;;3.70;;
74749;SDS011;63269;53.330;-6.288;2023-05-16T13:28:46;11.05;;;3.75;;
74749;SDS011;63269;53.330;-6.288;2023-05-16T13:31:11;11.20;;;4.47;;
74749;SDS011;63269;53.330;-6.288;2023-05-16T13:33:36;11.00;;;3.35;;
74749;SDS011;63269;53.330;-6.288;2023-05-16T13:36:02;6.45;;;3.05;;
74749;SDS011;63269;53.330;-6.288;2023-05-16T13:38:28;7.38;;;3.80;;
74749;SDS011;63269;53.330;-6.288;2023-05-16T13:40:53;6.72;;;3.10;;
74749;SDS011;63269;53.330;-6.288;2023-05-16T13:43:19;8.68;;;3.90;;
74749;SDS011;63269;53.330;-6.288;2023-05-16T13:45:44;9.75;;;3.97;;
74749;SDS011;63269;53.330;-6.288;2023-05-16T13:48:10;8.75;;;3.40;;
74749;SDS011;63269;53.330;-6.288;2023-05-16T13:50:35;6.55;;;3.08;;
74749;SDS011;63269;53.330;-6.288;2023-05-16T13:53:01;7.90;;;3.47;;
74749;SDS011;63269;53.330;-6.288;2023-05-16T13:55:26;10.25;;;3.88;;
74749;SDS011;63269;53.330;-6.288;2023-05-16T13:57:52;9.05;;;3.85;;
74749;SDS011;63269;53.330;-6.288;2023-05-16T14:00:17;7.00;;;3.25;;
74749;SDS011;63269;53.330;-6.288;2023-05-16T14:02:43;8.20;;;3.53;;
74749;SDS011;63269;53.330;-6.288;2023-05-16T14:05:09;7.78;;;3.53;;
74749;SDS011;63269;53.330;-6.288;2023-05-16T14:07:34;8.57;;;3.25;;
74749;SDS011;63269;53.330;-6.288;2023-05-16T14:10:00;8.88;;;3.50;;
74749;SDS011;63269;53.330;-6.288;2023-05-16T14:12:25;8.45;;;3.58;;
74749;SDS011;63269;53.330;-6.288;2023-05-16T14:14:51;9.02;;;4.05;;
74749;SDS011;63269;53.330;-6.288;2023-05-16T14:17:17;9.30;;;4.13;;
74749;SDS011;63269;53.330;-6.288;2023-05-16T14:19:42;8.40;;;3.47;;
74749;SDS011;63269;53.330;-6.288;2023-05-16T14:22:08;7.72;;;3.28;;
74749;SDS011;63269;53.330;-6.288;2023-05-16T14:24:33;7.35;;;3.55;;
74749;SDS011;63269;53.330;-6.288;2023-05-16T14:26:59;6.93;;;3.22;;
74749;SDS011;63269;53.330;-6.288;2023-05-16T14:29:24;7.07;;;4.03;;
74749;SDS011;63269;53.330;-6.288;2023-05-16T14:31:50;6.75;;;3.38;;
74749;SDS011;63269;53.330;-6.288;2023-05-16T14:34:15;7.60;;;3.08;;
74749;SDS011;63269;53.330;-6.288;2023-05-16T14:36:41;5.65;;;3.15;;
74749;SDS011;63269;53.330;-6.288;2023-05-16T14:39:06;7.43;;;3.88;;
74749;SDS011;63269;53.330;-6.288;2023-05-16T14:41:33;6.40;;;3.38;;
74749;SDS011;63269;53.330;-6.288;2023-05-16T14:43:58;7.22;;;3.30;;
74749;SDS011;63269;53.330;-6.288;2023-05-16T14:46:24;6.97;;;3.42;;
74749;SDS011;63269;53.330;-6.288;2023-05-16T14:48:49;7.88;;;3.20;;
74749;SDS011;63269;53.330;-6.288;2023-05-16T14:51:15;7.95;;;3.70;;
74749;SDS011;63269;53.330;-6.288;2023-05-16T14:53:40;6.82;;;3.22;;
74749;SDS011;63269;53.330;-6.288;2023-05-16T14:56:06;4.72;;;3.38;;
74749;SDS011;63269;53.330;-6.288;2023-05-16T14:58:31;5.60;;;3.15;;